sensor_id;sensor_type;location;lat;lon;timestamp;P1;durP1;ratioP1;P2;durP2;ratioP2
70026;SDS011;57506;50.092;15.804;2023-07-31T00:00:34;2.97;;;1.47;;
70026;SDS011;57506;50.092;15.804;2023-07-31T00:03:00;3.20;;;1.07;;
70026;SDS011;57506;50.092;15.804;2023-07-31T00:05:25;1.80;;;0.50;;
70026;SDS011;57506;50.092;15.804;2023-07-31T00:07:51;1.80;;;0.50;;
70026;SDS011;57506;50.092;15.804;2023-07-31T00:10:17;1.90;;;0.47;;
70026;SDS011;57506;50.092;15.804;2023-07-31T00:12:43;1.70;;;0.40;;
70026;SDS011;57506;50.092;15.804;2023-07-31T00:15:10;3.15;;;1.05;;
70026;SDS011;57506;50.092;15.804;2023-07-31T00:17:36;2.20;;;0.50;;
70026;SDS011;57506;50.092;15.804;2023-07-31T00:20:02;4.67;;;2.10;;
70026;SDS011;57506;50.092;15.804;2023-07-31T00:22:28;1.95;;;0.40;;
70026;SDS011;57506;50.092;15.804;2023-07-31T00:24:53;1.77;;;0.30;;
70026;SDS011;57506;50.092;15.804;2023-07-31T00:27:19;1.80;;;0.40;;
70026;SDS011;57506;50.092;15.804;2023-07-31T00:29:44;1.80;;;0.40;;
70026;SDS011;57506;50.092;15.804;2023-07-31T00:32:10;2.00;;;0.60;;
70026;SDS011;57506;50.092;15.804;2023-07-31T00:34:35;1.77;;;0.40;;
70026;SDS011;57506;50.092;15.804;2023-07-31T00:37:02;1.60;;;0.30;;
70026;SDS011;57506;50.092;15.804;2023-07-31T00:39:29;1.88;;;0.35;;
70026;SDS011;57506;50.092;15.804;2023-07-31T00:41:55;1.90;;;0.40;;
70026;SDS011;57506;50.092;15.804;2023-07-31T00:44:21;3.00;;;0.80;;
70026;SDS011;57506;50.092;15.804;2023-07-31T00:46:46;2.03;;;0.50;;
70026;SDS011;57506;50.092;15.804;2023-07-31T00:49:12;2.10;;;0.47;;
70026;SDS011;57506;50.092;15.804;2023-07-31T00:51:38;1.73;;;0.30;;
70026;SDS011;57506;50.092;15.804;2023-07-31T00:54:04;1.60;;;0.30;;
70026;SDS011;57506;50.092;15.804;2023-07-31T00:56:31;1.50;;;0.30;;
70026;SDS011;57506;50.092;15.804;2023-07-31T00:58:57;1.38;;;0.20;;
70026;SDS011;57506;50.092;15.804;2023-07-31T01:01:23;1.63;;;0.30;;
70026;SDS011;57506;50.092;15.804;2023-07-31T01:03:49;1.80;;;0.40;;
70026;SDS011;57506;50.092;15.804;2023-07-31T01:06:33;1.50;;;0.30;;
70026;SDS011;57506;50.092;15.804;2023-07-31T01:09:03;1.50;;;0.30;;
70026;SDS011;57506;50.092;15.804;2023-07-31T01:11:43;1.80;;;0.40;;
70026;SDS011;57506;50.092;15.804;2023-07-31T01:14:16;1.53;;;0.30;;
70026;SDS011;57506;50.092;15.804;2023-07-31T01:16:41;1.52;;;0.30;;
70026;SDS011;57506;50.092;15.804;2023-07-31T01:19:07;1.90;;;0.30;;
70026;SDS011;57506;50.092;15.804;2023-07-31T01:27:02;2.10;;;0.40;;
70026;SDS011;57506;50.092;15.804;2023-07-31T01:32:14;1.83;;;0.30;;
70026;SDS011;57506;50.092;15.804;2023-07-31T01:34:43;1.70;;;0.30;;
70026;SDS011;57506;50.092;15.804;2023-07-31T01:37:09;1.60;;;0.30;;
70026;SDS011;57506;50.092;15.804;2023-07-31T01:39:35;1.98;;;0.30;;
70026;SDS011;57506;50.092;15.804;2023-07-31T01:42:00;1.83;;;0.30;;
70026;SDS011;57506;50.092;15.804;2023-07-31T01:44:26;1.67;;;0.30;;
70026;SDS011;57506;50.092;15.804;2023-07-31T01:46:52;1.98;;;0.38;;
70026;SDS011;57506;50.092;15.804;2023-07-31T01:49:18;1.60;;;0.22;;
70026;SDS011;57506;50.092;15.804;2023-07-31T01:51:43;1.50;;;0.30;;
70026;SDS011;57506;50.092;15.804;2023-07-31T01:54:09;1.83;;;0.30;;
70026;SDS011;57506;50.092;15.804;2023-07-31T01:56:35;2.00;;;0.40;;
70026;SDS011;57506;50.092;15.804;2023-07-31T01:59:00;2.00;;;0.60;;
70026;SDS011;57506;50.092;15.804;2023-07-31T02:01:26;1.60;;;0.30;;
70026;SDS011;57506;50.092;15.804;2023-07-31T02:03:51;1.83;;;0.30;;
70026;SDS011;57506;50.092;15.804;2023-07-31T02:06:17;2.30;;;0.90;;
70026;SDS011;57506;50.092;15.804;2023-07-31T02:08:43;2.20;;;0.60;;
70026;SDS011;57506;50.092;15.804;2023-07-31T02:11:09;1.85;;;0.30;;
70026;SDS011;57506;50.092;15.804;2023-07-31T02:13:34;1.80;;;0.33;;
70026;SDS011;57506;50.092;15.804;2023-07-31T02:16:00;2.00;;;0.50;;
70026;SDS011;57506;50.092;15.804;2023-07-31T02:18:26;1.92;;;0.40;;
70026;SDS011;57506;50.092;15.804;2023-07-31T02:20:54;1.38;;;0.20;;
70026;SDS011;57506;50.092;15.804;2023-07-31T02:23:19;1.70;;;0.30;;
70026;SDS011;57506;50.092;15.804;2023-07-31T02:25:45;1.75;;;0.30;;
70026;SDS011;57506;50.092;15.804;2023-07-31T02:28:11;2.08;;;0.63;;
70026;SDS011;57506;50.092;15.804;2023-07-31T02:30:36;1.73;;;0.30;;
70026;SDS011;57506;50.092;15.804;2023-07-31T02:33:02;1.80;;;0.40;;
70026;SDS011;57506;50.092;15.804;2023-07-31T02:35:28;2.00;;;0.43;;
70026;SDS011;57506;50.092;15.804;2023-07-31T02:37:54;1.60;;;0.30;;
70026;SDS011;57506;50.092;15.804;2023-07-31T02:40:20;1.93;;;0.30;;
70026;SDS011;57506;50.092;15.804;2023-07-31T02:42:45;1.55;;;0.20;;
70026;SDS011;57506;50.092;15.804;2023-07-31T02:45:11;1.80;;;0.33;;
70026;SDS011;57506;50.092;15.804;2023-07-31T02:47:37;1.67;;;0.30;;
70026;SDS011;57506;50.092;15.804;2023-07-31T02:50:03;1.70;;;0.30;;
70026;SDS011;57506;50.092;15.804;2023-07-31T02:52:29;1.90;;;0.30;;
70026;SDS011;57506;50.092;15.804;2023-07-31T02:54:54;1.90;;;0.40;;
70026;SDS011;57506;50.092;15.804;2023-07-31T02:57:20;1.80;;;0.30;;
70026;SDS011;57506;50.092;15.804;2023-07-31T02:59:46;1.60;;;0.30;;
70026;SDS011;57506;50.092;15.804;2023-07-31T03:02:11;1.55;;;0.20;;
70026;SDS011;57506;50.092;15.804;2023-07-31T03:04:38;1.98;;;0.40;;
70026;SDS011;57506;50.092;15.804;2023-07-31T03:07:04;1.80;;;0.30;;
70026;SDS011;57506;50.092;15.804;2023-07-31T03:09:30;2.00;;;0.40;;
70026;SDS011;57506;50.092;15.804;2023-07-31T03:11:55;2.00;;;0.50;;
70026;SDS011;57506;50.092;15.804;2023-07-31T03:14:21;1.93;;;0.30;;
70026;SDS011;57506;50.092;15.804;2023-07-31T03:16:47;1.63;;;0.30;;
70026;SDS011;57506;50.092;15.804;2023-07-31T03:19:13;1.70;;;0.30;;
70026;SDS011;57506;50.092;15.804;2023-07-31T03:21:38;1.90;;;0.30;;
70026;SDS011;57506;50.092;15.804;2023-07-31T03:24:04;1.80;;;0.30;;
70026;SDS011;57506;50.092;15.804;2023-07-31T03:26:31;1.70;;;0.30;;
70026;SDS011;57506;50.092;15.804;2023-07-31T03:28:57;1.90;;;0.32;;
70026;SDS011;57506;50.092;15.804;2023-07-31T03:31:22;2.10;;;0.40;;
70026;SDS011;57506;50.092;15.804;2023-07-31T03:33:48;1.70;;;0.30;;
70026;SDS011;57506;50.092;15.804;2023-07-31T03:36:13;1.70;;;0.30;;
70026;SDS011;57506;50.092;15.804;2023-07-31T03:38:39;1.87;;;0.30;;
70026;SDS011;57506;50.092;15.804;2023-07-31T03:41:04;2.00;;;0.40;;
70026;SDS011;57506;50.092;15.804;2023-07-31T03:43:31;1.98;;;0.40;;
70026;SDS011;57506;50.092;15.804;2023-07-31T03:45:58;1.80;;;0.40;;
70026;SDS011;57506;50.092;15.804;2023-07-31T03:48:25;2.10;;;0.50;;
70026;SDS011;57506;50.092;15.804;2023-07-31T03:50:50;1.80;;;0.40;;
70026;SDS011;57506;50.092;15.804;2023-07-31T03:53:16;1.67;;;0.30;;
70026;SDS011;57506;50.092;15.804;2023-07-31T03:55:41;1.40;;;0.20;;
70026;SDS011;57506;50.092;15.804;2023-07-31T03:58:07;2.00;;;0.40;;
70026;SDS011;57506;50.092;15.804;2023-07-31T04:00:32;1.70;;;0.30;;
70026;SDS011;57506;50.092;15.804;2023-07-31T04:02:58;1.80;;;0.30;;
70026;SDS011;57506;50.092;15.804;2023-07-31T04:05:23;1.52;;;0.30;;
70026;SDS011;57506;50.092;15.804;2023-07-31T04:07:49;1.90;;;0.40;;
70026;SDS011;57506;50.092;15.804;2023-07-31T04:10:14;1.97;;;0.40;;
70026;SDS011;57506;50.092;15.804;2023-07-31T04:12:40;1.92;;;0.40;;
70026;SDS011;57506;50.092;15.804;2023-07-31T04:15:06;1.60;;;0.30;;
70026;SDS011;57506;50.092;15.804;2023-07-31T04:17:31;1.70;;;0.40;;
70026;SDS011;57506;50.092;15.804;2023-07-31T04:19:57;1.70;;;0.37;;
70026;SDS011;57506;50.092;15.804;2023-07-31T04:22:22;1.80;;;0.40;;
70026;SDS011;57506;50.092;15.804;2023-07-31T04:24:48;1.80;;;0.40;;
70026;SDS011;57506;50.092;15.804;2023-07-31T04:27:13;1.40;;;0.23;;
70026;SDS011;57506;50.092;15.804;2023-07-31T04:29:39;1.97;;;0.40;;
70026;SDS011;57506;50.092;15.804;2023-07-31T04:32:07;1.70;;;0.30;;
70026;SDS011;57506;50.092;15.804;2023-07-31T04:34:33;2.00;;;0.50;;
70026;SDS011;57506;50.092;15.804;2023-07-31T04:36:58;1.60;;;0.30;;
70026;SDS011;57506;50.092;15.804;2023-07-31T04:39:24;1.83;;;0.40;;
70026;SDS011;57506;50.092;15.804;2023-07-31T04:41:49;1.60;;;0.30;;
70026;SDS011;57506;50.092;15.804;2023-07-31T04:44:14;1.87;;;0.40;;
70026;SDS011;57506;50.092;15.804;2023-07-31T04:46:40;1.70;;;0.40;;
70026;SDS011;57506;50.092;15.804;2023-07-31T04:49:05;1.70;;;0.40;;
70026;SDS011;57506;50.092;15.804;2023-07-31T04:51:31;2.00;;;0.50;;
70026;SDS011;57506;50.092;15.804;2023-07-31T04:53:56;1.67;;;0.30;;
70026;SDS011;57506;50.092;15.804;2023-07-31T04:56:22;1.90;;;0.47;;
70026;SDS011;57506;50.092;15.804;2023-07-31T04:58:47;1.60;;;0.30;;
70026;SDS011;57506;50.092;15.804;2023-07-31T05:01:13;2.13;;;0.50;;
70026;SDS011;57506;50.092;15.804;2023-07-31T05:03:38;1.50;;;0.30;;
70026;SDS011;57506;50.092;15.804;2023-07-31T05:06:04;1.80;;;0.40;;
70026;SDS011;57506;50.092;15.804;2023-07-31T05:08:29;2.00;;;0.50;;
70026;SDS011;57506;50.092;15.804;2023-07-31T05:10:55;2.00;;;0.50;;
70026;SDS011;57506;50.092;15.804;2023-07-31T05:13:20;2.00;;;0.50;;
70026;SDS011;57506;50.092;15.804;2023-07-31T05:15:46;1.80;;;0.40;;
70026;SDS011;57506;50.092;15.804;2023-07-31T05:18:11;1.70;;;0.30;;
70026;SDS011;57506;50.092;15.804;2023-07-31T05:20:37;2.17;;;0.60;;
70026;SDS011;57506;50.092;15.804;2023-07-31T05:23:02;1.73;;;0.40;;
70026;SDS011;57506;50.092;15.804;2023-07-31T05:25:28;1.98;;;0.50;;
70026;SDS011;57506;50.092;15.804;2023-07-31T05:27:53;2.00;;;0.50;;
70026;SDS011;57506;50.092;15.804;2023-07-31T05:30:19;1.90;;;0.50;;
70026;SDS011;57506;50.092;15.804;2023-07-31T05:32:46;1.80;;;0.40;;
70026;SDS011;57506;50.092;15.804;2023-07-31T05:35:11;1.92;;;0.43;;
70026;SDS011;57506;50.092;15.804;2023-07-31T05:37:37;2.10;;;0.60;;
70026;SDS011;57506;50.092;15.804;2023-07-31T05:40:02;2.10;;;0.60;;
70026;SDS011;57506;50.092;15.804;2023-07-31T05:42:28;1.73;;;0.40;;
70026;SDS011;57506;50.092;15.804;2023-07-31T05:44:54;2.10;;;0.70;;
70026;SDS011;57506;50.092;15.804;2023-07-31T05:47:19;1.95;;;0.47;;
70026;SDS011;57506;50.092;15.804;2023-07-31T05:49:44;1.83;;;0.43;;
70026;SDS011;57506;50.092;15.804;2023-07-31T05:52:10;1.90;;;0.50;;
70026;SDS011;57506;50.092;15.804;2023-07-31T05:54:35;2.10;;;0.60;;
70026;SDS011;57506;50.092;15.804;2023-07-31T05:57:01;1.88;;;0.43;;
70026;SDS011;57506;50.092;15.804;2023-07-31T05:59:26;1.80;;;0.40;;
70026;SDS011;57506;50.092;15.804;2023-07-31T06:01:52;1.80;;;0.40;;
70026;SDS011;57506;50.092;15.804;2023-07-31T06:04:18;1.80;;;0.40;;
70026;SDS011;57506;50.092;15.804;2023-07-31T06:06:43;2.10;;;0.60;;
70026;SDS011;57506;50.092;15.804;2023-07-31T06:09:09;1.77;;;0.47;;
70026;SDS011;57506;50.092;15.804;2023-07-31T06:11:34;2.10;;;0.60;;
70026;SDS011;57506;50.092;15.804;2023-07-31T06:14:00;2.07;;;0.60;;
70026;SDS011;57506;50.092;15.804;2023-07-31T06:16:26;2.10;;;0.60;;
70026;SDS011;57506;50.092;15.804;2023-07-31T06:18:52;2.00;;;0.60;;
70026;SDS011;57506;50.092;15.804;2023-07-31T06:21:17;1.93;;;0.40;;
70026;SDS011;57506;50.092;15.804;2023-07-31T06:23:43;3.33;;;1.13;;
70026;SDS011;57506;50.092;15.804;2023-07-31T06:26:09;2.00;;;0.50;;
70026;SDS011;57506;50.092;15.804;2023-07-31T06:28:34;1.70;;;0.30;;
70026;SDS011;57506;50.092;15.804;2023-07-31T06:31:00;2.05;;;0.45;;
70026;SDS011;57506;50.092;15.804;2023-07-31T06:33:26;2.20;;;0.70;;
70026;SDS011;57506;50.092;15.804;2023-07-31T06:35:52;2.00;;;0.50;;
70026;SDS011;57506;50.092;15.804;2023-07-31T06:38:21;2.20;;;0.70;;
70026;SDS011;57506;50.092;15.804;2023-07-31T06:40:49;2.20;;;0.68;;
70026;SDS011;57506;50.092;15.804;2023-07-31T06:43:14;1.53;;;0.30;;
70026;SDS011;57506;50.092;15.804;2023-07-31T06:45:40;1.63;;;0.35;;
70026;SDS011;57506;50.092;15.804;2023-07-31T06:48:05;2.10;;;0.60;;
70026;SDS011;57506;50.092;15.804;2023-07-31T06:50:31;2.00;;;0.60;;
70026;SDS011;57506;50.092;15.804;2023-07-31T06:52:57;2.00;;;0.60;;
70026;SDS011;57506;50.092;15.804;2023-07-31T06:55:23;1.90;;;0.43;;
70026;SDS011;57506;50.092;15.804;2023-07-31T06:57:49;1.85;;;0.50;;
70026;SDS011;57506;50.092;15.804;2023-07-31T07:00:16;1.50;;;0.30;;
70026;SDS011;57506;50.092;15.804;2023-07-31T07:02:42;1.90;;;0.50;;
70026;SDS011;57506;50.092;15.804;2023-07-31T07:05:08;1.95;;;0.40;;
70026;SDS011;57506;50.092;15.804;2023-07-31T07:07:34;1.92;;;0.52;;
70026;SDS011;57506;50.092;15.804;2023-07-31T07:10:03;2.00;;;0.50;;
70026;SDS011;57506;50.092;15.804;2023-07-31T07:12:30;2.20;;;0.80;;
70026;SDS011;57506;50.092;15.804;2023-07-31T07:14:56;3.55;;;1.05;;
70026;SDS011;57506;50.092;15.804;2023-07-31T07:17:23;2.30;;;0.85;;
70026;SDS011;57506;50.092;15.804;2023-07-31T07:19:49;2.15;;;0.70;;
70026;SDS011;57506;50.092;15.804;2023-07-31T07:22:14;2.10;;;0.50;;
70026;SDS011;57506;50.092;15.804;2023-07-31T07:24:40;1.98;;;0.60;;
70026;SDS011;57506;50.092;15.804;2023-07-31T07:27:05;1.90;;;0.50;;
70026;SDS011;57506;50.092;15.804;2023-07-31T07:29:31;2.13;;;0.60;;
70026;SDS011;57506;50.092;15.804;2023-07-31T07:31:57;2.17;;;0.63;;
70026;SDS011;57506;50.092;15.804;2023-07-31T07:34:23;1.60;;;0.30;;
70026;SDS011;57506;50.092;15.804;2023-07-31T07:36:50;3.65;;;0.40;;
70026;SDS011;57506;50.092;15.804;2023-07-31T07:39:16;1.90;;;0.40;;
70026;SDS011;57506;50.092;15.804;2023-07-31T07:41:42;2.07;;;0.50;;
70026;SDS011;57506;50.092;15.804;2023-07-31T07:44:07;2.10;;;0.70;;
70026;SDS011;57506;50.092;15.804;2023-07-31T07:46:33;1.60;;;0.30;;
70026;SDS011;57506;50.092;15.804;2023-07-31T07:48:59;1.80;;;0.30;;
70026;SDS011;57506;50.092;15.804;2023-07-31T07:51:24;2.00;;;0.40;;
70026;SDS011;57506;50.092;15.804;2023-07-31T07:53:50;2.20;;;0.90;;
70026;SDS011;57506;50.092;15.804;2023-07-31T07:56:16;2.20;;;0.67;;
70026;SDS011;57506;50.092;15.804;2023-07-31T07:58:41;2.13;;;0.57;;
70026;SDS011;57506;50.092;15.804;2023-07-31T08:01:07;2.23;;;0.70;;
70026;SDS011;57506;50.092;15.804;2023-07-31T08:03:33;7.18;;;1.45;;
70026;SDS011;57506;50.092;15.804;2023-07-31T08:05:59;2.10;;;0.60;;
70026;SDS011;57506;50.092;15.804;2023-07-31T08:08:24;2.17;;;0.68;;
70026;SDS011;57506;50.092;15.804;2023-07-31T08:10:50;1.87;;;0.50;;
70026;SDS011;57506;50.092;15.804;2023-07-31T08:13:16;2.08;;;0.60;;
70026;SDS011;57506;50.092;15.804;2023-07-31T08:15:46;10.43;;;0.80;;
70026;SDS011;57506;50.092;15.804;2023-07-31T08:18:12;1.98;;;0.50;;
70026;SDS011;57506;50.092;15.804;2023-07-31T08:20:37;2.10;;;0.60;;
70026;SDS011;57506;50.092;15.804;2023-07-31T08:23:03;2.20;;;0.65;;
70026;SDS011;57506;50.092;15.804;2023-07-31T08:25:29;2.22;;;0.70;;
70026;SDS011;57506;50.092;15.804;2023-07-31T08:27:55;2.30;;;0.60;;
70026;SDS011;57506;50.092;15.804;2023-07-31T08:30:21;1.73;;;0.30;;
70026;SDS011;57506;50.092;15.804;2023-07-31T08:32:47;2.20;;;0.60;;
70026;SDS011;57506;50.092;15.804;2023-07-31T08:35:12;2.30;;;0.80;;
70026;SDS011;57506;50.092;15.804;2023-07-31T08:37:38;2.30;;;0.70;;
70026;SDS011;57506;50.092;15.804;2023-07-31T08:40:04;2.77;;;1.07;;
70026;SDS011;57506;50.092;15.804;2023-07-31T08:42:31;3.00;;;1.15;;
70026;SDS011;57506;50.092;15.804;2023-07-31T08:44:57;2.30;;;0.80;;
70026;SDS011;57506;50.092;15.804;2023-07-31T08:47:25;3.47;;;1.38;;
70026;SDS011;57506;50.092;15.804;2023-07-31T08:49:51;2.30;;;0.75;;
70026;SDS011;57506;50.092;15.804;2023-07-31T08:52:18;2.73;;;1.13;;
70026;SDS011;57506;50.092;15.804;2023-07-31T08:54:44;2.30;;;0.85;;
70026;SDS011;57506;50.092;15.804;2023-07-31T08:57:09;2.27;;;0.70;;
70026;SDS011;57506;50.092;15.804;2023-07-31T08:59:36;2.83;;;0.82;;
70026;SDS011;57506;50.092;15.804;2023-07-31T09:02:05;3.05;;;1.17;;
70026;SDS011;57506;50.092;15.804;2023-07-31T09:04:32;2.95;;;1.10;;
70026;SDS011;57506;50.092;15.804;2023-07-31T09:07:00;3.35;;;1.38;;
70026;SDS011;57506;50.092;15.804;2023-07-31T09:09:29;4.67;;;1.60;;
70026;SDS011;57506;50.092;15.804;2023-07-31T09:11:56;2.20;;;0.70;;
70026;SDS011;57506;50.092;15.804;2023-07-31T09:14:25;2.00;;;0.50;;
70026;SDS011;57506;50.092;15.804;2023-07-31T09:16:52;2.10;;;0.60;;
70026;SDS011;57506;50.092;15.804;2023-07-31T09:19:33;2.22;;;0.65;;
70026;SDS011;57506;50.092;15.804;2023-07-31T09:22:02;2.50;;;0.67;;
70026;SDS011;57506;50.092;15.804;2023-07-31T09:24:29;2.70;;;1.30;;
70026;SDS011;57506;50.092;15.804;2023-07-31T09:26:56;2.10;;;0.57;;
70026;SDS011;57506;50.092;15.804;2023-07-31T09:29:26;4.05;;;1.92;;
70026;SDS011;57506;50.092;15.804;2023-07-31T09:31:53;2.85;;;1.00;;
70026;SDS011;57506;50.092;15.804;2023-07-31T09:34:19;2.40;;;0.73;;
70026;SDS011;57506;50.092;15.804;2023-07-31T09:36:53;3.55;;;0.90;;
70026;SDS011;57506;50.092;15.804;2023-07-31T09:39:18;2.70;;;1.08;;
70026;SDS011;57506;50.092;15.804;2023-07-31T09:41:53;2.37;;;0.97;;
70026;SDS011;57506;50.092;15.804;2023-07-31T09:44:20;6.72;;;1.73;;
70026;SDS011;57506;50.092;15.804;2023-07-31T09:46:46;8.20;;;1.60;;
70026;SDS011;57506;50.092;15.804;2023-07-31T09:49:12;3.05;;;1.17;;
70026;SDS011;57506;50.092;15.804;2023-07-31T09:51:40;2.70;;;0.67;;
70026;SDS011;57506;50.092;15.804;2023-07-31T09:54:13;3.38;;;1.30;;
70026;SDS011;57506;50.092;15.804;2023-07-31T09:56:41;2.78;;;0.85;;
70026;SDS011;57506;50.092;15.804;2023-07-31T09:59:10;6.88;;;1.38;;
70026;SDS011;57506;50.092;15.804;2023-07-31T10:01:46;2.97;;;1.70;;
70026;SDS011;57506;50.092;15.804;2023-07-31T10:04:12;3.40;;;1.00;;
70026;SDS011;57506;50.092;15.804;2023-07-31T10:06:39;2.42;;;0.75;;
70026;SDS011;57506;50.092;15.804;2023-07-31T10:09:07;3.72;;;1.35;;
70026;SDS011;57506;50.092;15.804;2023-07-31T10:11:38;4.63;;;1.60;;
70026;SDS011;57506;50.092;15.804;2023-07-31T10:14:09;2.83;;;1.33;;
70026;SDS011;57506;50.092;15.804;2023-07-31T10:16:37;2.80;;;1.10;;
70026;SDS011;57506;50.092;15.804;2023-07-31T10:19:04;2.85;;;1.02;;
70026;SDS011;57506;50.092;15.804;2023-07-31T10:21:31;2.50;;;1.10;;
70026;SDS011;57506;50.092;15.804;2023-07-31T10:24:01;2.83;;;1.20;;
70026;SDS011;57506;50.092;15.804;2023-07-31T10:26:28;3.30;;;1.33;;
70026;SDS011;57506;50.092;15.804;2023-07-31T10:28:56;3.17;;;1.10;;
70026;SDS011;57506;50.092;15.804;2023-07-31T10:31:23;2.70;;;1.00;;
70026;SDS011;57506;50.092;15.804;2023-07-31T10:33:50;4.03;;;1.65;;
70026;SDS011;57506;50.092;15.804;2023-07-31T10:36:18;8.23;;;1.30;;
70026;SDS011;57506;50.092;15.804;2023-07-31T10:38:45;5.75;;;1.90;;
70026;SDS011;57506;50.092;15.804;2023-07-31T10:41:11;5.63;;;1.60;;
70026;SDS011;57506;50.092;15.804;2023-07-31T10:43:37;3.05;;;1.13;;
70026;SDS011;57506;50.092;15.804;2023-07-31T10:46:11;5.30;;;1.65;;
70026;SDS011;57506;50.092;15.804;2023-07-31T10:48:38;2.30;;;0.88;;
70026;SDS011;57506;50.092;15.804;2023-07-31T10:51:10;3.40;;;1.33;;
70026;SDS011;57506;50.092;15.804;2023-07-31T10:53:39;2.73;;;1.27;;
70026;SDS011;57506;50.092;15.804;2023-07-31T10:56:09;5.32;;;1.58;;
70026;SDS011;57506;50.092;15.804;2023-07-31T10:58:40;5.05;;;1.70;;
70026;SDS011;57506;50.092;15.804;2023-07-31T11:01:09;14.82;;;1.60;;
70026;SDS011;57506;50.092;15.804;2023-07-31T11:06:11;5.15;;;1.30;;
70026;SDS011;57506;50.092;15.804;2023-07-31T11:08:44;3.03;;;0.98;;
70026;SDS011;57506;50.092;15.804;2023-07-31T11:11:13;4.45;;;1.73;;
70026;SDS011;57506;50.092;15.804;2023-07-31T11:13:44;3.10;;;1.20;;
70026;SDS011;57506;50.092;15.804;2023-07-31T11:16:14;4.80;;;1.35;;
70026;SDS011;57506;50.092;15.804;2023-07-31T11:18:42;3.15;;;1.00;;
70026;SDS011;57506;50.092;15.804;2023-07-31T11:21:16;2.83;;;1.08;;
70026;SDS011;57506;50.092;15.804;2023-07-31T11:23:46;2.65;;;1.15;;
70026;SDS011;57506;50.092;15.804;2023-07-31T11:26:16;3.20;;;1.03;;
70026;SDS011;57506;50.092;15.804;2023-07-31T11:28:43;3.97;;;1.35;;
70026;SDS011;57506;50.092;15.804;2023-07-31T11:31:11;4.18;;;1.52;;
70026;SDS011;57506;50.092;15.804;2023-07-31T11:33:37;3.07;;;1.07;;
70026;SDS011;57506;50.092;15.804;2023-07-31T11:36:03;3.53;;;1.60;;
70026;SDS011;57506;50.092;15.804;2023-07-31T11:38:30;2.72;;;1.13;;
70026;SDS011;57506;50.092;15.804;2023-07-31T11:40:58;2.85;;;1.15;;
70026;SDS011;57506;50.092;15.804;2023-07-31T11:43:25;4.30;;;1.90;;
70026;SDS011;57506;50.092;15.804;2023-07-31T11:45:52;3.33;;;1.60;;
70026;SDS011;57506;50.092;15.804;2023-07-31T11:48:20;5.10;;;1.97;;
70026;SDS011;57506;50.092;15.804;2023-07-31T11:50:50;2.50;;;1.00;;
70026;SDS011;57506;50.092;15.804;2023-07-31T11:53:17;3.03;;;1.23;;
70026;SDS011;57506;50.092;15.804;2023-07-31T11:55:46;2.20;;;0.85;;
70026;SDS011;57506;50.092;15.804;2023-07-31T11:58:12;2.90;;;1.00;;
70026;SDS011;57506;50.092;15.804;2023-07-31T12:00:40;5.03;;;1.83;;
70026;SDS011;57506;50.092;15.804;2023-07-31T12:03:06;2.25;;;0.70;;
70026;SDS011;57506;50.092;15.804;2023-07-31T12:05:32;4.55;;;0.90;;
70026;SDS011;57506;50.092;15.804;2023-07-31T12:07:57;2.60;;;1.20;;
70026;SDS011;57506;50.092;15.804;2023-07-31T12:10:24;1.90;;;0.50;;
70026;SDS011;57506;50.092;15.804;2023-07-31T12:15:35;5.63;;;1.40;;
70026;SDS011;57506;50.092;15.804;2023-07-31T12:18:07;3.20;;;1.52;;
70026;SDS011;57506;50.092;15.804;2023-07-31T12:20:44;3.28;;;1.20;;
70026;SDS011;57506;50.092;15.804;2023-07-31T12:23:18;4.82;;;1.58;;
70026;SDS011;57506;50.092;15.804;2023-07-31T12:26:09;2.33;;;0.70;;
70026;SDS011;57506;50.092;15.804;2023-07-31T12:28:40;2.42;;;1.13;;
70026;SDS011;57506;50.092;15.804;2023-07-31T12:31:09;2.63;;;1.13;;
70026;SDS011;57506;50.092;15.804;2023-07-31T12:33:37;2.40;;;0.73;;
70026;SDS011;57506;50.092;15.804;2023-07-31T12:36:10;2.40;;;0.80;;
70026;SDS011;57506;50.092;15.804;2023-07-31T12:38:36;2.30;;;0.73;;
70026;SDS011;57506;50.092;15.804;2023-07-31T12:41:01;2.20;;;0.80;;
70026;SDS011;57506;50.092;15.804;2023-07-31T12:43:27;2.93;;;1.10;;
70026;SDS011;57506;50.092;15.804;2023-07-31T12:45:53;2.70;;;1.20;;
70026;SDS011;57506;50.092;15.804;2023-07-31T12:48:20;2.17;;;0.80;;
70026;SDS011;57506;50.092;15.804;2023-07-31T12:50:46;4.03;;;1.52;;
70026;SDS011;57506;50.092;15.804;2023-07-31T12:53:11;4.27;;;1.50;;
70026;SDS011;57506;50.092;15.804;2023-07-31T12:55:37;3.50;;;1.40;;
70026;SDS011;57506;50.092;15.804;2023-07-31T12:58:02;2.33;;;0.70;;
70026;SDS011;57506;50.092;15.804;2023-07-31T13:00:28;2.30;;;0.70;;
70026;SDS011;57506;50.092;15.804;2023-07-31T13:02:54;2.20;;;0.73;;
70026;SDS011;57506;50.092;15.804;2023-07-31T13:05:20;4.63;;;0.90;;
70026;SDS011;57506;50.092;15.804;2023-07-31T13:07:46;3.13;;;1.63;;
70026;SDS011;57506;50.092;15.804;2023-07-31T13:10:12;2.25;;;0.68;;
70026;SDS011;57506;50.092;15.804;2023-07-31T13:12:38;3.08;;;1.33;;
70026;SDS011;57506;50.092;15.804;2023-07-31T13:15:04;2.30;;;0.80;;
70026;SDS011;57506;50.092;15.804;2023-07-31T13:17:30;2.50;;;0.95;;
70026;SDS011;57506;50.092;15.804;2023-07-31T13:19:56;2.50;;;1.00;;
70026;SDS011;57506;50.092;15.804;2023-07-31T13:22:21;2.40;;;0.90;;
70026;SDS011;57506;50.092;15.804;2023-07-31T13:24:47;2.43;;;0.93;;
70026;SDS011;57506;50.092;15.804;2023-07-31T13:27:13;2.67;;;0.90;;
70026;SDS011;57506;50.092;15.804;2023-07-31T13:29:41;2.40;;;0.80;;
70026;SDS011;57506;50.092;15.804;2023-07-31T13:32:07;2.20;;;0.70;;
70026;SDS011;57506;50.092;15.804;2023-07-31T13:34:32;2.10;;;0.70;;
70026;SDS011;57506;50.092;15.804;2023-07-31T13:36:58;2.30;;;0.60;;
70026;SDS011;57506;50.092;15.804;2023-07-31T13:39:24;5.00;;;1.10;;
70026;SDS011;57506;50.092;15.804;2023-07-31T13:41:49;2.30;;;0.77;;
70026;SDS011;57506;50.092;15.804;2023-07-31T13:44:15;2.55;;;1.20;;
70026;SDS011;57506;50.092;15.804;2023-07-31T13:46:40;2.30;;;0.80;;
70026;SDS011;57506;50.092;15.804;2023-07-31T13:49:06;2.40;;;0.97;;
70026;SDS011;57506;50.092;15.804;2023-07-31T13:51:31;2.40;;;1.10;;
70026;SDS011;57506;50.092;15.804;2023-07-31T13:53:57;2.37;;;0.90;;
70026;SDS011;57506;50.092;15.804;2023-07-31T13:56:22;2.40;;;0.90;;
70026;SDS011;57506;50.092;15.804;2023-07-31T13:58:48;2.77;;;1.00;;
70026;SDS011;57506;50.092;15.804;2023-07-31T14:01:13;2.33;;;0.83;;
70026;SDS011;57506;50.092;15.804;2023-07-31T14:03:39;3.13;;;1.33;;
70026;SDS011;57506;50.092;15.804;2023-07-31T14:06:04;2.53;;;1.03;;
70026;SDS011;57506;50.092;15.804;2023-07-31T14:08:30;2.40;;;0.90;;
70026;SDS011;57506;50.092;15.804;2023-07-31T14:10:56;3.83;;;1.43;;
70026;SDS011;57506;50.092;15.804;2023-07-31T14:13:21;2.10;;;0.50;;
70026;SDS011;57506;50.092;15.804;2023-07-31T14:15:47;3.00;;;1.33;;
70026;SDS011;57506;50.092;15.804;2023-07-31T14:18:13;2.30;;;0.80;;
70026;SDS011;57506;50.092;15.804;2023-07-31T14:20:38;2.22;;;0.73;;
70026;SDS011;57506;50.092;15.804;2023-07-31T14:23:04;30.97;;;1.53;;
70026;SDS011;57506;50.092;15.804;2023-07-31T14:25:29;3.13;;;1.90;;
70026;SDS011;57506;50.092;15.804;2023-07-31T14:27:55;2.27;;;0.73;;
70026;SDS011;57506;50.092;15.804;2023-07-31T14:30:20;2.30;;;0.87;;
70026;SDS011;57506;50.092;15.804;2023-07-31T14:32:46;3.57;;;1.40;;
70026;SDS011;57506;50.092;15.804;2023-07-31T14:35:12;3.17;;;1.17;;
70026;SDS011;57506;50.092;15.804;2023-07-31T14:37:42;2.25;;;0.80;;
70026;SDS011;57506;50.092;15.804;2023-07-31T14:40:09;2.88;;;1.42;;
70026;SDS011;57506;50.092;15.804;2023-07-31T14:42:37;2.75;;;1.10;;